createdAt,value
2019-02-17T17:10:57.275Z,8.53
2019-02-17T17:13:30.983Z,8.17
2019-02-17T17:16:05.266Z,8.47
2019-02-17T17:18:39.753Z,8.73
2019-02-17T17:21:13.504Z,9.53
2019-02-17T17:23:47.078Z,9.60
2019-02-17T17:26:21.076Z,9.87
2019-02-17T17:28:55.593Z,11.30
2019-02-17T17:31:30.105Z,9.83
2019-02-17T17:34:03.849Z,10.33
2019-02-17T17:36:38.548Z,10.63
2019-02-17T17:39:12.228Z,10.30
2019-02-17T17:41:45.970Z,10.43
2019-02-17T17:44:19.845Z,10.73
2019-02-17T17:46:53.682Z,11.67
2019-02-17T17:49:27.441Z,10.57
2019-02-17T17:52:01.996Z,10.80
2019-02-17T17:54:35.743Z,12.07
2019-02-17T17:57:09.460Z,12.40
2019-02-17T17:59:43.258Z,12.00
2019-02-17T18:02:17.754Z,12.37
2019-02-17T18:04:51.458Z,11.47
2019-02-17T18:07:25.357Z,11.23
2019-02-17T18:09:59.176Z,11.90
2019-02-17T18:12:32.888Z,12.57
2019-02-17T18:15:06.672Z,12.63
2019-02-17T18:17:40.404Z,12.23
2019-02-17T18:20:14.217Z,12.30
2019-02-17T18:22:48.631Z,17.30
2019-02-17T18:25:22.233Z,15.97
2019-02-17T18:27:56.029Z,14.90
2019-02-17T18:30:30.428Z,13.57
2019-02-17T18:33:04.146Z,13.73
2019-02-17T18:35:37.836Z,12.03
2019-02-17T18:38:11.575Z,12.47
2019-02-17T18:40:47.887Z,13.23
2019-02-17T18:43:20.062Z,12.10
2019-02-17T18:45:53.831Z,12.00
2019-02-17T18:48:27.505Z,12.70
2019-02-17T18:51:01.332Z,11.77
2019-02-17T18:53:35.820Z,10.77
2019-02-17T18:56:10.350Z,10.57
2019-02-17T18:58:44.056Z,9.53
2019-02-17T19:01:17.848Z,9.27
2019-02-17T19:03:51.580Z,8.73
2019-02-17T19:06:26.181Z,9.23
2019-02-17T19:08:59.964Z,9.37
2019-02-17T19:11:33.809Z,8.33
2019-02-17T19:14:08.488Z,8.50
2019-02-17T19:16:42.164Z,8.50
2019-02-17T19:19:15.880Z,8.40
2019-02-17T19:21:50.440Z,8.10
2019-02-17T19:24:24.960Z,8.10
2019-02-17T19:26:58.714Z,8.47
2019-02-17T19:29:32.381Z,8.20
2019-02-17T19:32:06.118Z,8.50
2019-02-17T19:34:39.929Z,8.20
2019-02-17T19:37:13.713Z,10.07
2019-02-17T19:39:47.521Z,8.93
2019-02-17T19:42:21.313Z,8.83
2019-02-17T19:44:54.933Z,8.20
2019-02-17T19:47:29.637Z,8.33
2019-02-17T19:50:04.193Z,7.67
2019-02-17T19:52:37.883Z,10.00
2019-02-17T19:55:11.488Z,8.70
2019-02-17T19:57:46.080Z,8.57
2019-02-17T20:00:20.615Z,8.63
2019-02-17T20:02:54.360Z,8.13
2019-02-17T20:05:28.149Z,8.27
2019-02-17T20:08:02.654Z,7.87
2019-02-17T20:10:36.392Z,8.33
2019-02-17T20:13:10.170Z,8.03
2019-02-17T20:15:44.677Z,8.17
2019-02-17T20:18:19.200Z,7.37
2019-02-17T20:20:52.893Z,7.20
2019-02-17T20:23:26.697Z,7.27
2019-02-17T20:26:00.466Z,8.20
2019-02-17T20:28:43.035Z,7.63
2019-02-17T20:31:09.501Z,6.63
2019-02-17T20:33:43.279Z,8.23
2019-02-17T20:36:16.989Z,8.57
2019-02-17T20:38:50.829Z,7.60
2019-02-17T20:41:24.746Z,7.97
2019-02-17T20:43:59.310Z,8.00
2019-02-17T20:46:33.737Z,8.60
2019-02-17T20:49:07.457Z,8.57
2019-02-17T20:51:41.142Z,8.53
2019-02-17T20:54:15.020Z,8.47
2019-02-17T20:56:49.388Z,8.73
2019-02-17T20:59:23.114Z,8.23
2019-02-17T21:01:56.913Z,8.97
2019-02-17T21:04:31.505Z,9.07
2019-02-17T21:07:05.181Z,10.13
2019-02-17T21:09:39.065Z,9.33
2019-02-17T21:12:12.825Z,9.20
2019-02-17T21:14:46.595Z,9.77
2019-02-17T21:17:20.263Z,9.30
2019-02-17T21:19:53.834Z,10.40
2019-02-17T21:22:27.644Z,9.53
2019-02-17T21:25:02.319Z,9.07
2019-02-17T21:27:36.081Z,8.90
2019-02-17T21:30:12.777Z,9.03
2019-02-17T21:32:46.552Z,8.83
2019-02-17T21:35:20.216Z,8.87
2019-02-17T21:37:54.721Z,8.17
2019-02-17T21:40:28.685Z,8.57
2019-02-17T21:43:02.388Z,8.23
2019-02-17T21:45:36.133Z,9.00
2019-02-17T21:48:09.826Z,8.10
2019-02-17T21:50:43.733Z,9.00
2019-02-17T21:53:20.439Z,8.90
2019-02-17T21:55:51.277Z,9.83
2019-02-17T21:58:25.129Z,8.67
2019-02-17T22:00:59.657Z,9.30
2019-02-17T22:03:33.421Z,8.27
2019-02-17T22:06:07.197Z,8.53
2019-02-17T22:08:41.685Z,8.87
2019-02-17T22:11:16.225Z,9.37
2019-02-17T22:13:50.059Z,8.63
2019-02-17T22:16:24.532Z,8.80
2019-02-17T22:18:58.262Z,9.57
2019-02-17T22:21:32.094Z,9.10
2019-02-17T22:24:05.841Z,8.37
2019-02-17T22:26:39.572Z,7.97
2019-02-17T22:29:13.357Z,8.83
2019-02-17T22:31:47.891Z,8.27
2019-02-17T22:34:22.461Z,9.00
2019-02-17T22:36:56.137Z,8.70
2019-02-17T22:39:29.833Z,7.73
2019-02-17T22:42:03.777Z,7.67
2019-02-17T22:44:37.507Z,8.03
2019-02-17T22:47:11.328Z,7.40
2019-02-17T22:49:45.228Z,7.43
2019-02-17T22:52:19.070Z,7.27
2019-02-17T22:54:53.059Z,8.00
2019-02-17T22:57:26.709Z,7.73
2019-02-17T23:00:00.400Z,7.67
2019-02-17T23:02:34.109Z,8.23
2019-02-17T23:05:08.039Z,8.50
2019-02-17T23:07:42.497Z,7.93
2019-02-17T23:10:17.974Z,8.30
2019-02-17T23:12:51.581Z,7.37
2019-02-17T23:15:26.204Z,8.23
2019-02-17T23:17:59.854Z,7.97
2019-02-17T23:20:33.613Z,7.87
2019-02-17T23:23:07.488Z,7.20
2019-02-17T23:25:41.237Z,8.20
2019-02-17T23:28:15.057Z,8.37
2019-02-17T23:30:48.773Z,7.17
2019-02-17T23:33:22.552Z,8.57
2019-02-17T23:35:56.430Z,7.43
2019-02-17T23:38:30.055Z,7.77
2019-02-17T23:41:03.772Z,8.97
2019-02-17T23:43:37.645Z,8.13
2019-02-17T23:46:12.257Z,7.77
2019-02-17T23:48:46.045Z,8.00
2019-02-17T23:51:19.781Z,7.93
2019-02-17T23:53:53.404Z,6.80
2019-02-17T23:56:27.033Z,7.33
2019-02-17T23:59:00.821Z,7.60
